createdAt,value
2019-05-07T00:00:22.365Z,1016.33
2019-05-07T00:01:23.263Z,1016.39
2019-05-07T00:02:22.651Z,1016.35
2019-05-07T00:03:22.561Z,1016.35
2019-05-07T00:04:22.714Z,1016.32
2019-05-07T00:05:22.928Z,1016.33
2019-05-07T00:06:23.202Z,1016.36
2019-05-07T00:07:22.807Z,1016.34
2019-05-07T00:08:23.032Z,1016.36
2019-05-07T00:09:23.427Z,1016.37
2019-05-07T00:10:24.911Z,1016.31
2019-05-07T00:11:23.033Z,1016.31
2019-05-07T00:12:23.199Z,1016.33
2019-05-07T00:13:23.157Z,1016.30
2019-05-07T00:14:23.258Z,1016.35
2019-05-07T00:15:23.284Z,1016.29
2019-05-07T00:16:23.338Z,1016.32
2019-05-07T00:17:23.405Z,1016.32
2019-05-07T00:18:23.464Z,1016.31
2019-05-07T00:19:23.529Z,1016.31
2019-05-07T00:20:23.581Z,1016.31
2019-05-07T00:21:23.641Z,1016.26
2019-05-07T00:22:23.709Z,1016.29
2019-05-07T00:23:23.770Z,1016.26
2019-05-07T00:24:23.825Z,1016.26
2019-05-07T00:25:23.886Z,1016.27
2019-05-07T00:26:23.947Z,1016.29
2019-05-07T00:27:24.014Z,1016.29
2019-05-07T00:28:24.074Z,1016.23
2019-05-07T00:29:24.130Z,1016.25
2019-05-07T00:30:24.194Z,1016.22
2019-05-07T00:31:24.250Z,1016.20
2019-05-07T00:32:24.322Z,1016.21
2019-05-07T00:33:24.378Z,1016.15
2019-05-07T00:34:24.435Z,1016.16
2019-05-07T00:35:24.498Z,1016.18
2019-05-07T00:36:24.554Z,1016.17
2019-05-07T00:37:24.622Z,1016.20
2019-05-07T00:38:24.687Z,1016.18
2019-05-07T00:39:24.738Z,1016.18
2019-05-07T00:40:24.799Z,1016.19
2019-05-07T00:41:24.863Z,1016.19
2019-05-07T00:42:24.930Z,1016.15
2019-05-07T00:43:24.991Z,1016.16
2019-05-07T00:44:25.042Z,1016.18
2019-05-07T00:45:25.104Z,1016.17
2019-05-07T00:46:25.167Z,1016.19
2019-05-07T00:47:25.247Z,1016.20
2019-05-07T00:48:25.288Z,1016.20
2019-05-07T00:49:25.347Z,1016.18
2019-05-07T00:50:25.407Z,1016.17
2019-05-07T00:51:25.475Z,1016.18
2019-05-07T00:52:25.539Z,1016.20
2019-05-07T00:53:25.599Z,1016.20
2019-05-07T00:54:25.651Z,1016.21
2019-05-07T00:55:25.715Z,1016.21
2019-05-07T00:56:25.777Z,1016.20
2019-05-07T00:57:25.843Z,1016.20
2019-05-07T00:58:27.043Z,1016.22
2019-05-07T00:59:25.959Z,1016.22
2019-05-07T01:00:26.019Z,1016.18
2019-05-07T01:01:26.079Z,1016.20
2019-05-07T01:02:26.163Z,1016.20
2019-05-07T01:03:26.207Z,1016.20
2019-05-07T01:04:26.265Z,1016.19
2019-05-07T01:05:26.324Z,1016.21
2019-05-07T01:06:26.793Z,1016.23
2019-05-07T01:07:26.455Z,1016.20
2019-05-07T01:08:26.513Z,1016.20
2019-05-07T01:09:26.568Z,1016.18
2019-05-07T01:10:26.628Z,1016.22
2019-05-07T01:11:26.689Z,1016.18
2019-05-07T01:12:26.761Z,1016.19
2019-05-07T01:13:26.816Z,1016.16
2019-05-07T01:14:26.872Z,1016.14
2019-05-07T01:15:30.662Z,1016.14
2019-05-07T01:16:26.992Z,1016.14
2019-05-07T01:17:27.061Z,1016.09
2019-05-07T01:18:27.126Z,1016.10
2019-05-07T01:19:27.177Z,1016.09
2019-05-07T01:20:27.237Z,1016.11
2019-05-07T01:21:27.308Z,1016.09
2019-05-07T01:22:27.365Z,1016.09
2019-05-07T01:23:27.424Z,1016.06
2019-05-07T01:24:27.485Z,1016.08
2019-05-07T01:25:27.544Z,1016.08
2019-05-07T01:26:27.600Z,1016.08
2019-05-07T01:27:27.672Z,1016.05
2019-05-07T01:28:27.733Z,1016.06
2019-05-07T01:29:27.785Z,1016.05
2019-05-07T01:30:27.844Z,1016.09
2019-05-07T01:31:27.905Z,1016.07
2019-05-07T01:32:27.973Z,1016.07
2019-05-07T01:33:28.038Z,1016.10
2019-05-07T01:34:28.089Z,1016.09
2019-05-07T01:35:28.149Z,1016.05
2019-05-07T01:36:28.214Z,1016.07
2019-05-07T01:37:28.295Z,1016.07
2019-05-07T01:38:28.337Z,1016.06
2019-05-07T01:39:28.394Z,1016.07
2019-05-07T01:40:28.458Z,1016.04
2019-05-07T01:41:28.518Z,1016.05
2019-05-07T01:42:28.586Z,1016.07
2019-05-07T01:43:28.645Z,1016.08
2019-05-07T01:44:28.698Z,1016.07
2019-05-07T01:45:42.305Z,1016.04
2019-05-07T01:46:28.821Z,1016.05
2019-05-07T01:47:28.890Z,1016.02
2019-05-07T01:48:28.950Z,1016.06
2019-05-07T01:49:29.002Z,1016.02
2019-05-07T01:50:29.075Z,1016.05
2019-05-07T01:51:29.126Z,1016.06
2019-05-07T01:52:29.215Z,1016.07
2019-05-07T01:53:29.246Z,1016.05
2019-05-07T01:54:29.306Z,1016.07
2019-05-07T01:55:29.372Z,1016.05
2019-05-07T01:56:29.430Z,1016.02
2019-05-07T01:57:29.502Z,1016.05
2019-05-07T01:58:29.561Z,1016.08
2019-05-07T01:59:31.965Z,1016.07
2019-05-07T02:00:29.674Z,1016.06
2019-05-07T02:01:29.734Z,1016.08
2019-05-07T02:02:31.927Z,1016.09
2019-05-07T02:03:29.879Z,1016.08
2019-05-07T02:04:29.915Z,1016.09
2019-05-07T02:05:29.975Z,1016.09
2019-05-07T02:06:30.040Z,1016.11
2019-05-07T02:07:30.122Z,1016.05
2019-05-07T02:08:30.159Z,1016.08
2019-05-07T02:09:30.221Z,1016.06
2019-05-07T02:10:32.081Z,1016.05
2019-05-07T02:11:32.536Z,1016.08
2019-05-07T02:12:31.903Z,1016.07
2019-05-07T02:13:30.472Z,1016.08
2019-05-07T02:14:32.866Z,1016.07
2019-05-07T02:15:32.303Z,1016.05
2019-05-07T02:16:32.523Z,1016.07
2019-05-07T02:17:32.225Z,1016.08
2019-05-07T02:18:32.587Z,1016.11
2019-05-07T02:19:32.954Z,1016.02
2019-05-07T02:20:32.226Z,1016.07
2019-05-07T02:21:32.860Z,1016.07
2019-05-07T02:22:31.992Z,1016.05
2019-05-07T02:23:32.876Z,1016.02
2019-05-07T02:24:31.133Z,1016.07
2019-05-07T02:25:32.732Z,1016.02
2019-05-07T02:26:32.149Z,1016.05
2019-05-07T02:27:32.890Z,1016.03
2019-05-07T02:28:32.992Z,1016.02
2019-05-07T02:29:32.367Z,1016.02
2019-05-07T02:30:34.601Z,1016.01
2019-05-07T02:31:33.607Z,1016.02
2019-05-07T02:32:33.581Z,1016.00
2019-05-07T02:33:34.858Z,1016.01
2019-05-07T02:34:34.242Z,1016.01
2019-05-07T02:35:33.241Z,1016.01
2019-05-07T02:36:34.037Z,1015.97
2019-05-07T02:37:42.255Z,1015.96
2019-05-07T02:38:33.898Z,1015.98
2019-05-07T02:39:33.261Z,1015.95
2019-05-07T02:40:33.901Z,1015.94
2019-05-07T02:41:33.005Z,1015.96
2019-05-07T02:42:33.647Z,1015.98
2019-05-07T02:43:33.784Z,1015.94
2019-05-07T02:44:32.558Z,1015.93
2019-05-07T02:45:33.245Z,1015.94
2019-05-07T02:46:36.056Z,1015.96
2019-05-07T02:47:33.385Z,1015.98
2019-05-07T02:48:33.398Z,1015.95
2019-05-07T02:49:33.013Z,1015.94
2019-05-07T02:50:33.089Z,1015.98
2019-05-07T02:51:33.652Z,1015.94
2019-05-07T02:52:32.847Z,1015.99
2019-05-07T02:53:33.714Z,1016.02
2019-05-07T02:54:33.100Z,1015.99
2019-05-07T02:55:33.681Z,1015.96
2019-05-07T02:56:33.588Z,1015.96
2019-05-07T02:57:34.160Z,1015.98
2019-05-07T02:58:33.360Z,1015.95
2019-05-07T02:59:33.834Z,1016.00
2019-05-07T03:00:33.681Z,1015.99
2019-05-07T03:01:33.877Z,1015.98
2019-05-07T03:02:33.458Z,1016.02
2019-05-07T03:03:33.812Z,1015.99
2019-05-07T03:04:33.572Z,1015.98
2019-05-07T03:05:34.856Z,1016.01
2019-05-07T03:06:34.159Z,1015.97
2019-05-07T03:07:33.919Z,1015.97
2019-05-07T03:08:33.820Z,1015.98
2019-05-07T03:09:33.871Z,1015.95
2019-05-07T03:10:34.429Z,1015.97
2019-05-07T03:11:34.236Z,1015.96
2019-05-07T03:12:34.056Z,1015.93
2019-05-07T03:13:34.139Z,1015.95
2019-05-07T03:14:34.171Z,1015.97
2019-05-07T03:15:34.236Z,1015.96
2019-05-07T03:16:43.251Z,1015.97
2019-05-07T03:17:34.544Z,1015.96
2019-05-07T03:18:34.421Z,1015.96
2019-05-07T03:19:34.480Z,1015.95
2019-05-07T03:20:34.544Z,1015.95
2019-05-07T03:21:34.599Z,1015.92
2019-05-07T03:22:34.667Z,1015.94
2019-05-07T03:23:34.730Z,1015.93
2019-05-07T03:24:34.780Z,1015.91
2019-05-07T03:25:34.840Z,1015.92
2019-05-07T03:26:34.908Z,1015.92
2019-05-07T03:27:34.969Z,1015.92
2019-05-07T03:28:35.039Z,1015.93
2019-05-07T03:29:35.085Z,1015.95
2019-05-07T03:30:36.205Z,1015.93
2019-05-07T03:31:36.574Z,1015.91
2019-05-07T03:32:37.796Z,1015.93
2019-05-07T03:33:36.611Z,1015.95
2019-05-07T03:34:37.305Z,1015.96
2019-05-07T03:35:37.271Z,1015.91
2019-05-07T03:36:35.664Z,1015.93
2019-05-07T03:37:36.539Z,1015.90
2019-05-07T03:38:35.636Z,1015.94
2019-05-07T03:39:35.691Z,1015.93
2019-05-07T03:40:35.756Z,1015.89
2019-05-07T03:41:35.813Z,1015.87
2019-05-07T03:42:35.881Z,1015.85
2019-05-07T03:43:35.941Z,1015.86
2019-05-07T03:44:35.997Z,1015.86
2019-05-07T03:45:36.056Z,1015.89
2019-05-07T03:46:52.029Z,1015.93
2019-05-07T03:47:36.212Z,1015.89
2019-05-07T03:48:36.237Z,1015.92
2019-05-07T03:49:36.296Z,1015.92
2019-05-07T03:50:36.357Z,1015.92
2019-05-07T03:51:36.421Z,1015.93
2019-05-07T03:52:36.492Z,1015.95
2019-05-07T03:53:36.553Z,1015.93
2019-05-07T03:54:36.603Z,1015.95
2019-05-07T03:55:36.662Z,1015.96
2019-05-07T03:56:36.724Z,1015.95
2019-05-07T03:57:36.798Z,1015.93
2019-05-07T03:58:36.853Z,1015.94
2019-05-07T03:59:36.905Z,1015.96
2019-05-07T04:00:36.965Z,1015.94
2019-05-07T04:01:37.025Z,1015.95
2019-05-07T04:02:37.107Z,1015.97
2019-05-07T04:03:37.150Z,1015.99
2019-05-07T04:04:37.211Z,1015.95
2019-05-07T04:05:37.269Z,1015.95
2019-05-07T04:06:37.333Z,1015.97
2019-05-07T04:07:37.398Z,1015.93
2019-05-07T04:08:37.462Z,1015.98
2019-05-07T04:09:37.514Z,1016.00
2019-05-07T04:10:37.573Z,1016.00
2019-05-07T04:11:37.634Z,1016.03
2019-05-07T04:12:37.702Z,1016.00
2019-05-07T04:13:37.763Z,1016.01
2019-05-07T04:14:37.817Z,1016.00
2019-05-07T04:15:37.882Z,1015.97
2019-05-07T04:16:37.938Z,1016.00
2019-05-07T04:17:38.007Z,1015.99
2019-05-07T04:18:38.065Z,1015.93
2019-05-07T04:19:38.118Z,1015.95
2019-05-07T04:20:38.181Z,1015.95
2019-05-07T04:21:38.239Z,1015.95
2019-05-07T04:22:38.671Z,1015.94
2019-05-07T04:23:38.362Z,1015.93
2019-05-07T04:24:38.436Z,1015.94
2019-05-07T04:25:38.487Z,1015.95
2019-05-07T04:26:38.544Z,1015.93
2019-05-07T04:27:38.608Z,1015.95
2019-05-07T04:28:38.675Z,1015.96
2019-05-07T04:29:38.727Z,1015.96
2019-05-07T04:30:38.786Z,1015.95
2019-05-07T04:31:38.851Z,1015.90
2019-05-07T04:32:38.914Z,1015.90
2019-05-07T04:33:38.975Z,1015.89
2019-05-07T04:34:39.036Z,1015.89
2019-05-07T04:35:39.115Z,1015.89
2019-05-07T04:36:39.150Z,1015.88
2019-05-07T04:37:39.211Z,1015.91
2019-05-07T04:38:39.272Z,1015.92
2019-05-07T04:39:42.318Z,1015.91
2019-05-07T04:40:39.391Z,1015.91
2019-05-07T04:41:39.455Z,1015.89
2019-05-07T04:42:42.604Z,1015.93
2019-05-07T04:43:39.576Z,1015.92
2019-05-07T04:44:39.636Z,1015.93
2019-05-07T04:45:39.708Z,1015.93
2019-05-07T04:46:43.759Z,1015.94
2019-05-07T04:47:44.252Z,1015.91
2019-05-07T04:48:39.887Z,1015.95
2019-05-07T04:49:39.943Z,1015.93
2019-05-07T04:50:44.437Z,1015.92
2019-05-07T04:51:43.114Z,1015.92
2019-05-07T04:52:43.358Z,1015.94
2019-05-07T04:53:42.665Z,1015.91
2019-05-07T04:54:43.491Z,1015.91
2019-05-07T04:55:42.943Z,1015.89
2019-05-07T04:56:43.342Z,1015.88
2019-05-07T04:57:43.478Z,1015.87
2019-05-07T04:58:43.086Z,1015.87
2019-05-07T04:59:42.875Z,1015.91
2019-05-07T05:00:43.093Z,1015.91
2019-05-07T05:01:43.396Z,1015.94
2019-05-07T05:02:43.288Z,1015.97
2019-05-07T05:03:43.445Z,1015.96
2019-05-07T05:04:43.678Z,1015.99
2019-05-07T05:05:43.570Z,1015.99
2019-05-07T05:06:42.386Z,1015.96
2019-05-07T05:07:43.067Z,1016.01
2019-05-07T05:08:43.481Z,1015.97
2019-05-07T05:09:42.582Z,1015.97
2019-05-07T05:10:43.299Z,1016.01
2019-05-07T05:11:43.661Z,1016.00
2019-05-07T05:12:42.806Z,1016.04
2019-05-07T05:13:44.343Z,1016.05
2019-05-07T05:14:43.532Z,1016.04
2019-05-07T05:15:43.195Z,1016.03
2019-05-07T05:16:42.533Z,1016.01
2019-05-07T05:17:50.026Z,1016.05
2019-05-07T05:18:42.052Z,1016.03
2019-05-07T05:19:43.817Z,1016.04
2019-05-07T05:20:42.234Z,1016.04
2019-05-07T05:21:42.109Z,1016.09
2019-05-07T05:22:42.506Z,1016.09
2019-05-07T05:23:42.064Z,1016.06
2019-05-07T05:24:42.496Z,1016.10
2019-05-07T05:25:43.117Z,1016.06
2019-05-07T05:26:42.217Z,1016.10
2019-05-07T05:27:43.005Z,1016.09
2019-05-07T05:28:42.321Z,1016.05
2019-05-07T05:29:42.926Z,1016.07
2019-05-07T05:30:42.690Z,1016.10
2019-05-07T05:31:42.510Z,1016.11
2019-05-07T05:32:42.577Z,1016.11
2019-05-07T05:33:42.626Z,1016.16
2019-05-07T05:34:42.716Z,1016.14
2019-05-07T05:35:43.230Z,1016.16
2019-05-07T05:36:42.823Z,1016.14
2019-05-07T05:37:43.070Z,1016.15
2019-05-07T05:38:42.938Z,1016.17
2019-05-07T05:39:42.998Z,1016.13
2019-05-07T05:40:43.059Z,1016.09
2019-05-07T05:41:43.170Z,1016.09
2019-05-07T05:42:43.183Z,1016.12
2019-05-07T05:43:43.246Z,1016.10
2019-05-07T05:44:43.306Z,1016.10
2019-05-07T05:45:43.366Z,1016.10
2019-05-07T05:46:43.434Z,1016.14
2019-05-07T05:47:44.958Z,1016.14
2019-05-07T05:48:43.554Z,1016.12
2019-05-07T05:49:43.614Z,1016.13
2019-05-07T05:50:43.679Z,1016.09
2019-05-07T05:51:43.750Z,1016.11
2019-05-07T05:52:43.811Z,1016.06
2019-05-07T05:53:43.863Z,1016.09
2019-05-07T05:54:43.926Z,1016.11
2019-05-07T05:55:43.989Z,1016.09
2019-05-07T05:56:44.056Z,1016.12
2019-05-07T05:57:44.115Z,1016.10
2019-05-07T05:58:44.172Z,1016.11
2019-05-07T05:59:49.019Z,1016.07
2019-05-07T06:00:44.303Z,1016.09
2019-05-07T06:01:44.409Z,1016.11
2019-05-07T06:02:44.424Z,1016.13
2019-05-07T06:03:44.484Z,1016.16
2019-05-07T06:04:44.547Z,1016.17
2019-05-07T06:05:44.607Z,1016.16
2019-05-07T06:06:44.675Z,1016.19
2019-05-07T06:07:44.740Z,1016.17
2019-05-07T06:08:44.795Z,1016.13
2019-05-07T06:09:44.855Z,1016.12
2019-05-07T06:10:44.920Z,1016.09
2019-05-07T06:11:44.989Z,1016.08
2019-05-07T06:12:45.051Z,1016.09
2019-05-07T06:13:45.104Z,1016.17
2019-05-07T06:14:45.168Z,1016.12
2019-05-07T06:15:45.232Z,1016.14
2019-05-07T06:16:45.317Z,1016.17
2019-05-07T06:17:45.357Z,1016.16
2019-05-07T06:18:45.416Z,1016.18
2019-05-07T06:19:45.481Z,1016.20
2019-05-07T06:20:45.546Z,1016.19
2019-05-07T06:21:45.612Z,1016.15
2019-05-07T06:22:45.679Z,1016.21
2019-05-07T06:23:45.733Z,1016.21
2019-05-07T06:24:45.800Z,1016.19
2019-05-07T06:25:45.857Z,1016.25
2019-05-07T06:26:45.926Z,1016.22
2019-05-07T06:27:45.989Z,1016.27
2019-05-07T06:28:46.045Z,1016.23
2019-05-07T06:29:46.109Z,1016.22
2019-05-07T06:30:46.173Z,1016.25
2019-05-07T06:31:46.234Z,1016.21
2019-05-07T06:32:46.309Z,1016.26
2019-05-07T06:33:46.362Z,1016.29
2019-05-07T06:34:46.422Z,1016.30
2019-05-07T06:35:46.486Z,1016.31
2019-05-07T06:36:46.551Z,1016.33
2019-05-07T06:37:46.626Z,1016.59
2019-05-07T06:38:46.682Z,1016.77
2019-05-07T06:39:46.739Z,1016.93
2019-05-07T06:40:46.804Z,1017.08
2019-05-07T06:41:46.868Z,1017.03
2019-05-07T06:42:46.938Z,1016.72
2019-05-07T06:43:47.007Z,1016.87
2019-05-07T06:44:47.066Z,1017.01
2019-05-07T06:45:47.129Z,1017.05
2019-05-07T06:46:47.193Z,1017.11
2019-05-07T06:47:47.254Z,1017.09
2019-05-07T06:48:47.367Z,1017.07
2019-05-07T06:49:47.386Z,1017.15
2019-05-07T06:50:47.450Z,1017.00
2019-05-07T06:51:47.915Z,1016.98
2019-05-07T06:52:47.582Z,1016.88
2019-05-07T06:53:47.658Z,1016.89
2019-05-07T06:54:47.723Z,1016.96
2019-05-07T06:55:47.787Z,1016.97
2019-05-07T06:56:49.059Z,1017.02
2019-05-07T06:57:47.915Z,1016.99
2019-05-07T06:58:47.993Z,1016.94
2019-05-07T06:59:48.059Z,1016.93
2019-05-07T07:00:48.119Z,1016.97
2019-05-07T07:01:48.184Z,1016.92
2019-05-07T07:02:48.252Z,1016.86
2019-05-07T07:03:48.320Z,1016.92
2019-05-07T07:04:48.492Z,1016.90
2019-05-07T07:05:48.459Z,1016.90
2019-05-07T07:06:48.524Z,1016.89
2019-05-07T07:07:48.595Z,1016.82
2019-05-07T07:08:48.660Z,1016.78
2019-05-07T07:09:48.732Z,1016.76
2019-05-07T07:10:48.800Z,1016.80
2019-05-07T07:11:48.886Z,1016.79
2019-05-07T07:12:48.938Z,1016.81
2019-05-07T07:13:48.996Z,1016.86
2019-05-07T07:14:49.068Z,1016.96
2019-05-07T07:15:49.136Z,1016.98
2019-05-07T07:16:49.196Z,1016.93
2019-05-07T07:17:49.264Z,1016.88
2019-05-07T07:18:52.500Z,1016.80
2019-05-07T07:19:49.410Z,1016.88
2019-05-07T07:20:49.476Z,1016.83
2019-05-07T07:21:49.541Z,1016.88
2019-05-07T07:22:49.662Z,1016.87
2019-05-07T07:23:49.673Z,1016.72
2019-05-07T07:24:49.749Z,1016.91
2019-05-07T07:25:52.100Z,1017.04
2019-05-07T07:26:49.881Z,1016.97
2019-05-07T07:27:51.952Z,1017.00
2019-05-07T07:28:52.368Z,1016.94
2019-05-07T07:29:52.283Z,1016.93
2019-05-07T07:30:50.153Z,1016.88
2019-05-07T07:31:50.220Z,1016.67
2019-05-07T07:32:51.920Z,1016.48
2019-05-07T07:33:52.480Z,1016.53
2019-05-07T07:34:50.444Z,1016.81
2019-05-07T07:35:52.091Z,1016.77
2019-05-07T07:37:03.119Z,1016.81
2019-05-07T07:37:52.896Z,1016.85
2019-05-07T07:38:52.612Z,1016.82
2019-05-07T07:39:52.434Z,1016.79
2019-05-07T07:40:52.743Z,1016.74
2019-05-07T07:41:52.256Z,1016.34
2019-05-07T07:42:52.058Z,1016.27
2019-05-07T07:43:52.550Z,1016.70
2019-05-07T07:44:51.913Z,1016.65
2019-05-07T07:45:52.562Z,1016.66
2019-05-07T07:46:53.113Z,1016.62
2019-05-07T07:47:53.078Z,1016.62
2019-05-07T07:49:04.466Z,1016.61
2019-05-07T07:49:52.677Z,1016.59
2019-05-07T07:50:52.442Z,1016.50
2019-05-07T07:51:52.632Z,1016.52
2019-05-07T07:52:52.996Z,1016.51
2019-05-07T07:53:52.078Z,1016.33
2019-05-07T07:54:52.940Z,1016.49
2019-05-07T07:55:53.003Z,1016.55
2019-05-07T07:56:55.649Z,1016.19
2019-05-07T07:57:52.165Z,1016.18
2019-05-07T07:58:52.471Z,1016.15
2019-05-07T07:59:52.874Z,1016.12
2019-05-07T08:00:52.409Z,1016.20
2019-05-07T08:01:52.509Z,1016.38
2019-05-07T08:02:52.920Z,1016.47
2019-05-07T08:03:52.447Z,1016.44
2019-05-07T08:04:52.816Z,1016.53
2019-05-07T08:05:52.587Z,1016.47
2019-05-07T08:06:52.647Z,1016.44
2019-05-07T08:07:53.055Z,1016.39
2019-05-07T08:08:53.021Z,1016.21
2019-05-07T08:09:52.872Z,1016.21
2019-05-07T08:10:52.930Z,1016.23
2019-05-07T08:11:52.995Z,1016.01
2019-05-07T08:12:53.064Z,1015.93
2019-05-07T08:13:53.143Z,1015.93
2019-05-07T08:14:53.571Z,1015.88
2019-05-07T08:15:53.267Z,1015.91
2019-05-07T08:16:53.335Z,1015.91
2019-05-07T08:17:53.403Z,1015.85
2019-05-07T08:18:53.473Z,1015.89
2019-05-07T08:19:53.539Z,1015.84
2019-05-07T08:20:53.639Z,1015.82
2019-05-07T08:21:53.675Z,1015.80
2019-05-07T08:22:53.743Z,1015.78
2019-05-07T08:23:53.813Z,1015.73
2019-05-07T08:24:53.882Z,1015.73
2019-05-07T08:25:53.948Z,1015.70
2019-05-07T08:26:54.017Z,1015.71
2019-05-07T08:27:54.075Z,1015.73
2019-05-07T08:28:54.144Z,1015.75
2019-05-07T08:29:54.207Z,1015.71
2019-05-07T08:30:54.288Z,1015.71
2019-05-07T08:31:54.342Z,1015.69
2019-05-07T08:32:54.404Z,1015.64
2019-05-07T08:33:54.472Z,1015.68
2019-05-07T08:34:54.541Z,1015.64
2019-05-07T08:35:54.610Z,1015.60
2019-05-07T08:36:54.676Z,1015.59
2019-05-07T08:37:54.737Z,1015.55
2019-05-07T08:38:54.813Z,1015.55
2019-05-07T08:39:54.864Z,1015.52
2019-05-07T08:40:54.935Z,1015.53
2019-05-07T08:41:55.002Z,1015.52
2019-05-07T08:42:55.065Z,1015.53
2019-05-07T08:44:08.363Z,1015.54
2019-05-07T08:44:55.189Z,1015.52
2019-05-07T08:45:55.274Z,1015.51
2019-05-07T08:46:55.317Z,1015.50
2019-05-07T08:47:55.380Z,1015.50
2019-05-07T08:48:55.444Z,1015.51
2019-05-07T08:49:55.508Z,1015.50
2019-05-07T08:50:55.582Z,1015.49
2019-05-07T08:51:55.645Z,1015.47
2019-05-07T08:52:55.704Z,1015.51
2019-05-07T08:53:55.767Z,1015.50
2019-05-07T08:54:55.829Z,1015.46
2019-05-07T08:55:55.901Z,1015.48
2019-05-07T08:56:55.964Z,1015.47
2019-05-07T08:57:56.020Z,1015.48
2019-05-07T08:58:56.086Z,1015.47
2019-05-07T09:00:01.100Z,1015.47
2019-05-07T09:00:56.225Z,1015.51
2019-05-07T09:01:56.278Z,1015.49
2019-05-07T09:02:56.341Z,1015.43
2019-05-07T09:03:56.407Z,1015.42
2019-05-07T09:04:56.471Z,1015.48
2019-05-07T09:05:56.546Z,1015.48
2019-05-07T09:06:56.605Z,1015.46
2019-05-07T09:07:56.661Z,1015.45
2019-05-07T09:08:56.726Z,1015.44
2019-05-07T09:09:56.786Z,1015.43
2019-05-07T09:10:56.918Z,1015.43
2019-05-07T09:11:56.922Z,1015.40
2019-05-07T09:12:56.978Z,1015.39
2019-05-07T09:13:57.045Z,1015.40
2019-05-07T09:14:57.109Z,1015.40
2019-05-07T09:15:57.262Z,1015.37
2019-05-07T09:16:57.234Z,1015.36
2019-05-07T09:17:57.294Z,1015.38
2019-05-07T09:18:57.358Z,1015.39
2019-05-07T09:19:57.421Z,1015.39
2019-05-07T09:20:57.493Z,1015.32
2019-05-07T09:21:57.557Z,1015.34
2019-05-07T09:22:57.613Z,1015.30
2019-05-07T09:23:57.674Z,1015.34
2019-05-07T09:24:57.747Z,1015.32
2019-05-07T09:25:57.810Z,1015.31
2019-05-07T09:26:57.874Z,1015.28
2019-05-07T09:27:57.930Z,1015.25
2019-05-07T09:28:57.994Z,1015.26
2019-05-07T09:29:58.058Z,1015.26
2019-05-07T09:30:58.150Z,1015.27
2019-05-07T09:31:58.182Z,1015.26
2019-05-07T09:32:58.246Z,1015.26
2019-05-07T09:33:58.310Z,1015.22
2019-05-07T09:34:58.374Z,1015.24
2019-05-07T09:35:58.450Z,1015.21
2019-05-07T09:36:58.508Z,1015.21
2019-05-07T09:37:58.566Z,1015.22
2019-05-07T09:38:59.457Z,1015.23
2019-05-07T09:39:58.691Z,1015.24
2019-05-07T09:40:58.762Z,1015.21
2019-05-07T09:41:58.834Z,1015.21
2019-05-07T09:42:58.883Z,1015.16
2019-05-07T09:43:58.942Z,1015.18
2019-05-07T09:44:59.012Z,1015.15
2019-05-07T09:45:59.088Z,1015.18
2019-05-07T09:46:59.135Z,1015.14
2019-05-07T09:47:59.200Z,1015.13
2019-05-07T09:48:59.264Z,1015.12
2019-05-07T09:50:04.775Z,1015.12
2019-05-07T09:50:59.396Z,1015.08
2019-05-07T09:51:59.459Z,1015.05
2019-05-07T09:52:59.515Z,1015.09
2019-05-07T09:53:59.579Z,1015.07
2019-05-07T09:54:59.643Z,1015.08
2019-05-07T09:56:01.990Z,1015.09
2019-05-07T09:57:01.780Z,1015.10
2019-05-07T09:58:01.859Z,1015.10
2019-05-07T09:59:02.034Z,1015.11
2019-05-07T10:00:02.049Z,1015.08
2019-05-07T10:01:01.944Z,1015.10
2019-05-07T10:02:01.824Z,1015.08
2019-05-07T10:03:00.148Z,1015.08
2019-05-07T10:04:02.412Z,1015.12
2019-05-07T10:05:02.448Z,1015.10
2019-05-07T10:06:02.210Z,1015.09
2019-05-07T10:07:02.411Z,1015.09
2019-05-07T10:08:01.878Z,1015.11
2019-05-07T10:09:02.703Z,1015.09
2019-05-07T10:10:02.949Z,1015.09
2019-05-07T10:11:02.610Z,1015.08
2019-05-07T10:12:02.785Z,1015.09
2019-05-07T10:13:01.849Z,1015.07
2019-05-07T10:14:01.929Z,1015.07
2019-05-07T10:15:02.894Z,1015.11
2019-05-07T10:16:00.981Z,1015.07
2019-05-07T10:17:02.713Z,1015.03
2019-05-07T10:18:01.850Z,1015.05
2019-05-07T10:19:01.161Z,1015.03
2019-05-07T10:20:04.426Z,1015.06
2019-05-07T10:21:02.510Z,1015.00
2019-05-07T10:22:02.320Z,1015.01
2019-05-07T10:23:02.409Z,1015.02
2019-05-07T10:24:02.446Z,1015.00
2019-05-07T10:25:02.820Z,1015.03
2019-05-07T10:26:01.879Z,1015.00
2019-05-07T10:27:02.235Z,1015.00
2019-05-07T10:28:02.028Z,1014.99
2019-05-07T10:29:02.212Z,1015.00
2019-05-07T10:30:02.603Z,1014.98
2019-05-07T10:31:01.929Z,1015.00
2019-05-07T10:32:02.315Z,1015.02
2019-05-07T10:33:02.053Z,1014.96
2019-05-07T10:34:03.044Z,1014.98
2019-05-07T10:35:02.429Z,1015.00
2019-05-07T10:36:02.264Z,1015.01
2019-05-07T10:37:02.774Z,1015.01
2019-05-07T10:38:02.371Z,1014.99
2019-05-07T10:39:02.610Z,1014.97
2019-05-07T10:40:03.026Z,1014.97
2019-05-07T10:41:02.949Z,1014.95
2019-05-07T10:42:02.626Z,1014.96
2019-05-07T10:43:02.687Z,1014.96
2019-05-07T10:44:02.751Z,1014.97
2019-05-07T10:45:03.163Z,1014.97
2019-05-07T10:46:02.885Z,1014.96
2019-05-07T10:47:02.949Z,1014.98
2019-05-07T10:48:03.005Z,1014.94
2019-05-07T10:49:03.073Z,1014.92
2019-05-07T10:50:03.135Z,1014.90
2019-05-07T10:51:03.578Z,1014.89
2019-05-07T10:52:03.262Z,1014.89
2019-05-07T10:53:03.336Z,1014.85
2019-05-07T10:54:03.390Z,1014.83
2019-05-07T10:55:03.454Z,1014.79
2019-05-07T10:56:03.523Z,1014.83
2019-05-07T10:57:03.766Z,1014.81
2019-05-07T10:58:03.650Z,1014.82
2019-05-07T10:59:03.715Z,1014.80
2019-05-07T11:00:03.787Z,1014.80
2019-05-07T11:01:03.851Z,1014.77
2019-05-07T11:02:03.922Z,1014.79
2019-05-07T11:03:03.978Z,1014.77
2019-05-07T11:04:04.035Z,1014.75
2019-05-07T11:05:04.098Z,1014.73
2019-05-07T11:06:04.162Z,1014.73
2019-05-07T11:07:04.254Z,1014.73
2019-05-07T11:08:04.295Z,1014.75
2019-05-07T11:09:04.359Z,1014.76
2019-05-07T11:10:04.423Z,1014.77
2019-05-07T11:11:04.488Z,1014.75
2019-05-07T11:12:04.559Z,1014.70
2019-05-07T11:13:04.624Z,1014.73
2019-05-07T11:14:04.680Z,1014.69
2019-05-07T11:15:04.743Z,1014.71
2019-05-07T11:16:04.811Z,1014.69
2019-05-07T11:17:04.882Z,1014.67
2019-05-07T11:18:04.944Z,1014.68
2019-05-07T11:19:05.004Z,1014.64
2019-05-07T11:20:05.068Z,1014.60
2019-05-07T11:21:05.131Z,1014.61
2019-05-07T11:22:05.223Z,1014.58
2019-05-07T11:23:05.264Z,1014.59
2019-05-07T11:24:05.324Z,1014.56
2019-05-07T11:25:05.388Z,1014.53
2019-05-07T11:26:05.457Z,1014.48
2019-05-07T11:27:05.528Z,1014.48
2019-05-07T11:28:05.589Z,1014.48
2019-05-07T11:29:05.644Z,1014.44
2019-05-07T11:30:05.707Z,1014.43
2019-05-07T11:31:05.772Z,1014.44
2019-05-07T11:32:05.845Z,1014.41
2019-05-07T11:33:05.908Z,1014.44
2019-05-07T11:34:05.964Z,1014.39
2019-05-07T11:35:06.028Z,1014.36
2019-05-07T11:36:06.093Z,1014.37
2019-05-07T11:37:06.262Z,1014.37
2019-05-07T11:38:17.821Z,1014.38
2019-05-07T11:39:06.284Z,1014.37
2019-05-07T11:40:06.351Z,1014.35
2019-05-07T11:41:06.413Z,1014.35
2019-05-07T11:42:06.493Z,1014.33
2019-05-07T11:43:06.548Z,1014.35
2019-05-07T11:44:06.607Z,1014.32
2019-05-07T11:45:06.668Z,1014.37
2019-05-07T11:46:06.733Z,1014.34
2019-05-07T11:47:06.805Z,1014.35
2019-05-07T11:48:06.876Z,1014.34
2019-05-07T11:49:06.931Z,1014.33
2019-05-07T11:50:06.989Z,1014.32
2019-05-07T11:51:07.054Z,1014.35
2019-05-07T11:52:07.117Z,1014.31
2019-05-07T11:53:07.269Z,1014.29
2019-05-07T11:54:07.246Z,1014.30
2019-05-07T11:55:07.309Z,1014.32
2019-05-07T11:56:07.373Z,1014.33
2019-05-07T11:57:07.437Z,1014.30
2019-05-07T11:58:07.510Z,1014.29
2019-05-07T11:59:07.573Z,1014.29
2019-05-07T12:00:07.629Z,1014.28
2019-05-07T12:01:07.694Z,1014.28
2019-05-07T12:02:07.757Z,1014.28
2019-05-07T12:03:07.829Z,1014.33
2019-05-07T12:04:07.895Z,1014.33
2019-05-07T12:05:07.954Z,1014.33
2019-05-07T12:06:08.019Z,1014.30